createdAt,value
2023-01-21T00:00:38.192Z,222.00
2023-01-21T00:03:48.470Z,213.44
2023-01-21T00:06:54.602Z,244.00
2023-01-21T00:10:01.572Z,264.72
2023-01-21T00:13:07.810Z,262.83
2023-01-21T00:16:15.987Z,260.55
2023-01-21T00:19:24.860Z,256.17
2023-01-21T00:22:31.907Z,246.59
2023-01-21T00:25:37.923Z,245.86
2023-01-21T00:28:46.868Z,258.41
2023-01-21T00:31:53.678Z,257.45
2023-01-21T00:35:03.138Z,262.46
2023-01-21T00:38:09.224Z,256.54
2023-01-21T00:41:17.669Z,267.97
2023-01-21T00:44:23.845Z,255.41
2023-01-21T00:47:30.707Z,262.04
2023-01-21T00:50:39.286Z,236.45
2023-01-21T00:53:46.068Z,239.00
2023-01-21T00:56:51.990Z,247.26
2023-01-21T00:59:58.881Z,233.24
2023-01-21T01:03:04.905Z,233.51
2023-01-21T01:06:18.408Z,224.29
2023-01-21T01:09:24.446Z,223.63
2023-01-21T01:12:32.358Z,215.26
2023-01-21T01:15:40.830Z,209.90
2023-01-21T01:18:48.941Z,194.16
2023-01-21T01:21:57.584Z,190.96
2023-01-21T01:25:04.463Z,192.12
2023-01-21T01:28:10.632Z,179.22
2023-01-21T01:31:20.741Z,186.35
2023-01-21T01:34:27.070Z,179.90
2023-01-21T01:37:36.525Z,183.90
2023-01-21T01:40:43.502Z,177.95
2023-01-21T01:43:59.380Z,168.42
2023-01-21T01:47:08.238Z,169.19
2023-01-21T01:50:21.095Z,174.31
2023-01-21T01:53:33.608Z,180.90
2023-01-21T01:56:48.113Z,175.09
2023-01-21T01:59:54.901Z,166.77
2023-01-21T02:03:14.176Z,175.60
2023-01-21T02:06:22.365Z,173.09
2023-01-21T02:09:31.855Z,177.35
2023-01-21T02:12:41.693Z,183.55
2023-01-21T02:16:15.882Z,173.51
2023-01-21T02:20:04.184Z,173.67
2023-01-21T02:23:23.264Z,168.79
2023-01-21T02:27:18.055Z,167.00
2023-01-21T02:31:06.701Z,177.50
2023-01-21T02:34:30.538Z,196.08
2023-01-21T02:37:51.239Z,212.14
2023-01-21T02:41:13.907Z,199.84
2023-01-21T02:44:38.194Z,219.05
2023-01-21T02:48:06.202Z,224.77
2023-01-21T02:51:16.515Z,210.26
2023-01-21T02:54:57.025Z,218.81
2023-01-21T02:58:10.762Z,222.09
2023-01-21T03:01:40.081Z,210.05
2023-01-21T03:05:12.100Z,214.65
2023-01-21T03:08:30.620Z,199.55
2023-01-21T03:11:37.207Z,191.53
2023-01-21T03:15:10.997Z,200.41
2023-01-21T03:18:29.665Z,199.43
2023-01-21T03:21:39.642Z,191.96
2023-01-21T03:24:54.625Z,179.56
2023-01-21T03:28:09.708Z,188.86
2023-01-21T03:31:26.898Z,198.72
2023-01-21T03:34:44.809Z,206.60
2023-01-21T03:37:57.864Z,215.93
2023-01-21T03:41:17.668Z,193.07
2023-01-21T03:44:24.334Z,211.36
2023-01-21T03:47:37.825Z,216.28
2023-01-21T03:50:55.801Z,226.58
2023-01-21T03:54:03.494Z,216.43
2023-01-21T03:57:12.116Z,211.15
2023-01-21T04:00:20.928Z,184.34
2023-01-21T04:03:27.317Z,194.39
2023-01-21T04:06:34.268Z,202.58
2023-01-21T04:09:40.357Z,235.10
2023-01-21T04:12:49.843Z,202.14
2023-01-21T04:15:55.811Z,237.77
2023-01-21T04:19:02.687Z,208.32
2023-01-21T04:22:08.757Z,217.50
2023-01-21T04:25:15.688Z,185.53
2023-01-21T04:28:24.605Z,166.03
2023-01-21T04:31:31.543Z,161.51
2023-01-21T04:34:37.901Z,165.84
2023-01-21T04:37:44.709Z,169.74
2023-01-21T04:40:50.767Z,167.22
2023-01-21T04:44:00.336Z,159.18
2023-01-21T04:47:06.398Z,157.38
2023-01-21T04:50:17.811Z,146.78
2023-01-21T04:53:23.951Z,157.94
2023-01-21T04:56:30.893Z,175.14
2023-01-21T04:59:39.502Z,140.29
2023-01-21T05:02:46.321Z,149.90
2023-01-21T05:05:52.420Z,150.96
2023-01-21T05:08:59.291Z,154.19
2023-01-21T05:12:05.317Z,149.36
2023-01-21T05:15:15.780Z,139.76
2023-01-21T05:18:21.737Z,133.60
2023-01-21T05:21:28.701Z,132.43
2023-01-21T05:24:34.836Z,124.18
2023-01-21T05:27:41.714Z,119.91
2023-01-21T05:30:50.340Z,127.07
2023-01-21T05:33:57.300Z,132.13
2023-01-21T05:37:03.232Z,124.00
2023-01-21T05:40:12.319Z,135.28
2023-01-21T05:43:18.460Z,144.38
2023-01-21T05:46:28.202Z,143.67
2023-01-21T05:49:34.272Z,140.59
2023-01-21T05:52:42.043Z,136.02
2023-01-21T05:55:48.123Z,144.80
2023-01-21T05:58:54.952Z,151.78
2023-01-21T06:02:03.571Z,135.43
2023-01-21T06:05:11.508Z,136.53
2023-01-21T06:08:17.542Z,138.92
2023-01-21T06:11:24.435Z,138.70
2023-01-21T06:14:30.466Z,142.81
2023-01-21T06:17:42.394Z,137.42
2023-01-21T06:20:48.367Z,133.92
2023-01-21T06:23:55.169Z,128.37
2023-01-21T06:27:01.175Z,127.22
2023-01-21T06:30:10.810Z,128.10
2023-01-21T06:33:19.407Z,150.58
2023-01-21T06:36:26.310Z,147.03
2023-01-21T06:39:32.265Z,129.48
2023-01-21T06:42:39.117Z,135.87
2023-01-21T06:45:45.379Z,138.72
2023-01-21T06:48:55.029Z,138.62
2023-01-21T06:52:01.076Z,145.22
2023-01-21T06:55:09.446Z,166.22
2023-01-21T06:58:15.558Z,158.92
2023-01-21T07:01:22.562Z,145.95
2023-01-21T07:04:31.919Z,174.66
2023-01-21T07:07:39.620Z,170.41
2023-01-21T07:10:47.744Z,190.04
2023-01-21T07:13:54.842Z,217.92
2023-01-21T07:17:00.922Z,233.45
2023-01-21T07:20:15.050Z,227.29
2023-01-21T07:23:21.375Z,219.07
2023-01-21T07:26:28.371Z,203.69
2023-01-21T07:29:34.421Z,219.66
2023-01-21T07:32:41.285Z,184.86
2023-01-21T07:35:50.271Z,200.77
2023-01-21T07:38:57.916Z,229.56
2023-01-21T07:42:04.308Z,219.81
2023-01-21T07:45:12.990Z,206.96
2023-01-21T07:48:19.044Z,209.53
2023-01-21T07:51:28.643Z,197.58
2023-01-21T07:54:35.248Z,196.98
2023-01-21T07:57:42.274Z,190.33
2023-01-21T08:00:48.369Z,182.17
2023-01-21T08:03:55.198Z,195.05
2023-01-21T08:07:11.971Z,196.33
2023-01-21T08:10:22.447Z,217.14
2023-01-21T08:13:29.233Z,245.68
2023-01-21T08:16:36.135Z,271.70
2023-01-21T08:19:42.177Z,315.35
2023-01-21T08:22:51.625Z,302.73
2023-01-21T08:25:58.357Z,333.01
2023-01-21T08:29:05.270Z,261.18
2023-01-21T08:32:11.530Z,281.65
2023-01-21T08:35:18.825Z,263.17
2023-01-21T08:38:27.648Z,432.24
2023-01-21T08:41:35.151Z,492.05
2023-01-21T08:44:41.148Z,298.56
2023-01-21T08:47:48.102Z,353.12
2023-01-21T08:50:54.238Z,432.47
2023-01-21T08:54:05.376Z,360.53
2023-01-21T08:57:11.632Z,390.80
2023-01-21T09:00:19.978Z,295.84
2023-01-21T09:03:27.322Z,378.52
2023-01-21T09:06:34.353Z,305.59
2023-01-21T09:09:43.027Z,327.44
2023-01-21T09:12:49.999Z,255.09
2023-01-21T09:15:56.512Z,353.87
2023-01-21T09:19:04.091Z,307.30
2023-01-21T09:22:10.440Z,268.70
2023-01-21T09:25:23.088Z,295.34
2023-01-21T09:28:30.178Z,229.90
2023-01-21T09:31:37.300Z,266.89
2023-01-21T09:34:43.404Z,301.10
2023-01-21T09:37:50.264Z,394.09
2023-01-21T09:41:07.592Z,358.18
2023-01-21T09:44:27.933Z,428.19
2023-01-21T09:47:43.165Z,378.19
2023-01-21T09:50:56.573Z,256.57
2023-01-21T09:54:03.817Z,303.73
2023-01-21T09:57:37.213Z,336.81
2023-01-21T10:00:55.709Z,315.46
2023-01-21T10:04:22.416Z,377.51
2023-01-21T10:07:37.735Z,339.87
2023-01-21T10:10:54.337Z,360.92
2023-01-21T10:14:28.026Z,297.38
2023-01-21T10:17:54.963Z,233.78
2023-01-21T10:21:09.716Z,289.16
2023-01-21T10:24:24.225Z,290.96
2023-01-21T10:27:38.392Z,297.36
2023-01-21T10:30:55.020Z,376.02
2023-01-21T10:34:01.097Z,317.46
2023-01-21T10:37:28.204Z,296.64
2023-01-21T10:40:49.347Z,369.01
2023-01-21T10:44:10.849Z,395.85
2023-01-21T10:47:36.729Z,303.11
2023-01-21T10:50:57.465Z,251.17
2023-01-21T10:54:21.578Z,286.44
2023-01-21T10:57:57.136Z,246.77
2023-01-21T11:01:10.910Z,710.95
2023-01-21T11:04:25.768Z,649.20
2023-01-21T11:07:43.528Z,518.87
2023-01-21T11:10:56.349Z,401.00
2023-01-21T11:14:02.765Z,408.32
2023-01-21T11:17:10.158Z,429.68
2023-01-21T11:20:28.313Z,494.42
2023-01-21T11:23:39.470Z,675.54
2023-01-21T11:26:55.617Z,352.30
2023-01-21T11:30:02.803Z,365.79
2023-01-21T11:33:23.452Z,481.73
2023-01-21T11:36:33.083Z,369.97
2023-01-21T11:39:53.759Z,364.06
2023-01-21T11:43:00.886Z,403.24
2023-01-21T11:46:29.674Z,375.21
2023-01-21T11:49:36.707Z,332.13
2023-01-21T11:52:45.826Z,430.09
2023-01-21T11:55:57.299Z,534.42
2023-01-21T11:59:03.672Z,398.07
2023-01-21T12:02:22.180Z,278.78
2023-01-21T12:05:39.165Z,285.80
2023-01-21T12:08:55.600Z,285.97
2023-01-21T12:12:33.168Z,180.64
2023-01-21T12:16:14.488Z,175.57
2023-01-21T12:19:57.131Z,429.94
2023-01-21T12:23:41.106Z,309.20
2023-01-21T12:27:04.552Z,310.18
2023-01-21T12:30:32.755Z,238.98
2023-01-21T12:33:58.184Z,305.99
2023-01-21T12:37:17.283Z,308.10
2023-01-21T12:40:34.167Z,266.84
2023-01-21T12:43:49.881Z,224.52
2023-01-21T12:47:06.005Z,239.12
2023-01-21T12:50:36.285Z,250.58
2023-01-21T12:53:52.287Z,236.49
2023-01-21T12:57:16.790Z,281.24
2023-01-21T13:00:32.887Z,315.20
2023-01-21T13:03:58.286Z,213.24
2023-01-21T13:07:22.539Z,201.59
2023-01-21T13:10:38.982Z,228.33
2023-01-21T13:13:57.348Z,206.44
2023-01-21T13:17:17.864Z,292.57
2023-01-21T13:20:27.018Z,492.97
2023-01-21T13:23:46.478Z,790.44
2023-01-21T13:27:10.144Z,683.90
2023-01-21T13:30:32.287Z,228.89
2023-01-21T13:33:59.600Z,182.83
2023-01-21T13:37:27.004Z,514.14
2023-01-21T13:40:50.610Z,637.85
2023-01-21T13:44:41.732Z,355.89
2023-01-21T13:48:28.663Z,237.12
2023-01-21T13:52:03.012Z,226.86
2023-01-21T13:55:34.419Z,396.45
2023-01-21T13:58:54.647Z,440.64
2023-01-21T14:02:11.857Z,472.38
2023-01-21T14:05:32.899Z,400.40
2023-01-21T14:08:53.086Z,426.08
2023-01-21T14:12:12.746Z,652.50
2023-01-21T14:16:02.470Z,638.15
2023-01-21T14:19:59.198Z,506.43
2023-01-21T14:23:42.692Z,437.16
2023-01-21T14:27:19.500Z,465.60
2023-01-21T14:30:34.517Z,402.20
2023-01-21T14:33:51.478Z,580.61
2023-01-21T14:37:11.621Z,318.69
2023-01-21T14:40:30.062Z,387.88
2023-01-21T14:43:56.933Z,518.58
2023-01-21T14:47:23.482Z,634.75
2023-01-21T14:50:50.121Z,646.67
2023-01-21T14:54:05.061Z,507.01
2023-01-21T14:57:29.891Z,389.27
2023-01-21T15:00:41.351Z,371.24
2023-01-21T15:03:54.140Z,374.41
2023-01-21T15:07:11.504Z,382.57
2023-01-21T15:10:24.538Z,350.47
2023-01-21T15:13:42.169Z,452.69
2023-01-21T15:16:51.924Z,463.44
2023-01-21T15:20:01.560Z,424.95
2023-01-21T15:23:20.486Z,398.05
2023-01-21T15:26:36.690Z,413.13
2023-01-21T15:29:45.295Z,368.80
2023-01-21T15:32:55.629Z,376.83
2023-01-21T15:36:06.241Z,385.53
2023-01-21T15:39:19.279Z,349.23
2023-01-21T15:42:40.241Z,388.63
2023-01-21T15:46:04.599Z,420.41
2023-01-21T15:49:37.962Z,485.24
2023-01-21T15:53:17.079Z,441.71
2023-01-21T15:56:49.047Z,607.59
2023-01-21T16:00:32.819Z,662.58
2023-01-21T16:03:49.156Z,691.61
2023-01-21T16:07:22.476Z,693.67
2023-01-21T16:10:42.457Z,687.72
2023-01-21T16:14:06.361Z,636.49
2023-01-21T16:17:30.645Z,735.27
2023-01-21T16:20:38.867Z,647.66
2023-01-21T16:23:47.974Z,653.61
2023-01-21T16:26:54.963Z,598.51
2023-01-21T16:30:03.028Z,661.85
2023-01-21T16:33:16.145Z,726.72
2023-01-21T16:36:22.614Z,847.95
2023-01-21T16:39:32.206Z,930.05
2023-01-21T16:42:41.578Z,987.95
2023-01-21T16:45:55.175Z,982.55
2023-01-21T16:49:05.010Z,926.36
2023-01-21T16:52:24.681Z,985.28
2023-01-21T16:55:34.878Z,1094.52
2023-01-21T16:58:50.808Z,1155.48
2023-01-21T17:01:59.980Z,1040.20
2023-01-21T17:05:09.128Z,988.10
2023-01-21T17:08:18.924Z,953.72
2023-01-21T17:11:28.864Z,939.72
2023-01-21T17:14:38.213Z,976.96
2023-01-21T17:17:45.775Z,1036.14
2023-01-21T17:21:02.839Z,1076.13
2023-01-21T17:24:22.663Z,1163.40
2023-01-21T17:27:34.275Z,1133.66
2023-01-21T17:30:42.070Z,985.77
2023-01-21T17:33:51.066Z,998.64
2023-01-21T17:36:59.874Z,906.35
2023-01-21T17:40:06.632Z,973.70
2023-01-21T17:43:24.815Z,1213.84
2023-01-21T17:46:32.798Z,1233.91
2023-01-21T17:49:39.936Z,1104.37
2023-01-21T17:52:53.998Z,958.08
2023-01-21T17:56:05.222Z,846.57
2023-01-21T17:59:37.911Z,838.13
2023-01-21T18:02:44.930Z,874.51
2023-01-21T18:05:51.615Z,874.17
2023-01-21T18:09:00.775Z,892.48
2023-01-21T18:12:07.503Z,927.89
2023-01-21T18:15:21.134Z,873.03
2023-01-21T18:18:33.760Z,815.32
2023-01-21T18:21:40.725Z,889.18
2023-01-21T18:24:46.767Z,944.31
2023-01-21T18:27:54.892Z,829.81
2023-01-21T18:31:04.297Z,819.45
2023-01-21T18:34:16.481Z,850.41
2023-01-21T18:37:27.975Z,793.40
2023-01-21T18:40:37.396Z,775.42
2023-01-21T18:43:43.499Z,796.27
2023-01-21T18:46:53.364Z,741.79
2023-01-21T18:50:03.174Z,664.34
2023-01-21T18:53:10.357Z,674.09
2023-01-21T18:56:19.048Z,646.64
2023-01-21T18:59:26.266Z,742.33
2023-01-21T19:02:35.089Z,769.73
2023-01-21T19:05:45.944Z,700.60
2023-01-21T19:08:52.096Z,654.86
2023-01-21T19:11:58.997Z,672.08
2023-01-21T19:15:05.598Z,697.32
2023-01-21T19:18:19.693Z,890.27
2023-01-21T19:21:25.910Z,925.22
2023-01-21T19:24:33.767Z,1059.41
2023-01-21T19:27:44.971Z,1265.01
2023-01-21T19:30:55.739Z,971.48
2023-01-21T19:34:04.491Z,909.25
2023-01-21T19:37:17.294Z,888.61
2023-01-21T19:40:26.234Z,1035.89
2023-01-21T19:43:33.535Z,987.04
2023-01-21T19:46:39.807Z,1072.50
2023-01-21T19:49:50.504Z,1315.68
2023-01-21T19:52:58.027Z,930.32
2023-01-21T19:56:07.298Z,849.03
2023-01-21T19:59:18.461Z,928.22
2023-01-21T20:02:25.511Z,959.57
2023-01-21T20:05:36.650Z,1245.12
2023-01-21T20:08:44.183Z,1548.55
2023-01-21T20:11:51.430Z,1380.28
2023-01-21T20:14:58.585Z,1206.72
2023-01-21T20:18:08.098Z,1143.85
2023-01-21T20:21:18.330Z,1103.10
2023-01-21T20:24:24.584Z,1158.59
2023-01-21T20:27:31.681Z,1364.59
2023-01-21T20:30:37.948Z,1362.11
2023-01-21T20:33:45.045Z,1273.00
2023-01-21T20:36:59.602Z,1101.26
2023-01-21T20:40:07.061Z,1103.30
2023-01-21T20:43:14.113Z,1130.62
2023-01-21T20:46:26.514Z,1181.32
2023-01-21T20:49:32.888Z,1168.06
2023-01-21T20:52:42.551Z,1089.12
2023-01-21T20:55:51.619Z,1052.77
2023-01-21T20:58:59.019Z,1018.26
2023-01-21T21:02:05.403Z,1043.16
2023-01-21T21:05:13.579Z,1027.20
2023-01-21T21:08:25.229Z,986.10
2023-01-21T21:11:32.197Z,991.24
2023-01-21T21:14:39.029Z,933.30
2023-01-21T21:17:47.210Z,916.21
2023-01-21T21:20:55.423Z,918.94
2023-01-21T21:24:06.780Z,912.27
2023-01-21T21:27:14.872Z,888.72
2023-01-21T21:30:27.741Z,883.59
2023-01-21T21:33:33.986Z,890.02
2023-01-21T21:36:43.773Z,893.17
2023-01-21T21:39:52.622Z,859.53
2023-01-21T21:43:12.852Z,885.55
2023-01-21T21:46:31.402Z,886.17
2023-01-21T21:49:38.676Z,873.67
2023-01-21T21:52:44.849Z,882.93
2023-01-21T21:55:54.451Z,878.57
2023-01-21T21:59:00.858Z,863.74
2023-01-21T22:02:08.630Z,886.75
2023-01-21T22:05:14.822Z,893.56
2023-01-21T22:08:22.022Z,842.40
2023-01-21T22:11:32.832Z,858.97
2023-01-21T22:14:39.961Z,901.96
2023-01-21T22:17:46.879Z,943.97
2023-01-21T22:20:56.554Z,941.98
2023-01-21T22:24:03.967Z,946.56
2023-01-21T22:27:14.180Z,936.29
2023-01-21T22:30:21.309Z,964.42
2023-01-21T22:33:28.338Z,969.81
2023-01-21T22:36:35.461Z,959.89
2023-01-21T22:39:42.627Z,971.23
2023-01-21T22:42:51.599Z,989.81
2023-01-21T22:46:01.352Z,994.95
2023-01-21T22:49:07.713Z,994.93
2023-01-21T22:52:16.931Z,996.57
2023-01-21T22:55:23.157Z,1005.84
2023-01-21T22:58:35.777Z,1043.82
2023-01-21T23:01:42.232Z,1062.74
2023-01-21T23:05:05.321Z,1050.53
2023-01-21T23:08:14.501Z,1114.90
2023-01-21T23:11:23.632Z,1031.76
2023-01-21T23:14:32.454Z,984.88
2023-01-21T23:17:39.512Z,980.04
2023-01-21T23:20:46.253Z,984.14
2023-01-21T23:23:53.969Z,975.39
2023-01-21T23:27:00.200Z,935.19
2023-01-21T23:30:12.769Z,931.97
2023-01-21T23:33:19.096Z,935.72
2023-01-21T23:36:26.977Z,926.57
2023-01-21T23:39:33.177Z,926.23
2023-01-21T23:42:41.128Z,921.13
2023-01-21T23:45:49.918Z,919.49
2023-01-21T23:48:57.236Z,918.30
2023-01-21T23:52:05.362Z,911.05
2023-01-21T23:55:14.907Z,894.42
2023-01-21T23:58:21.003Z,888.62
